CET,Max TemperatureF,Mean TemperatureF,Min TemperatureF,Max Dew PointF,MeanDew PointF,Min DewpointF,Max Humidity, Mean Humidity, Min Humidity, Max Sea Level PressureIn, Mean Sea Level PressureIn, Min Sea Level PressureIn, Max VisibilityMiles, Mean VisibilityMiles, Min VisibilityMiles, Max Wind SpeedMPH, Mean Wind SpeedMPH, Max Gust SpeedMPH,PrecipitationIn, CloudCover, Events, WindDirDegrees
2013-1-1,41,36,31,36,29,27,87,77,58,29.95,29.81,29.77,16,7,6,16,10,,0.00,4,Rain,159
2013-1-2,40,36,32,37,31,28,93,79,60,30.36,30.12,29.86,16,7,6,21,13,,0.00,4,,236
2013-1-3,42,37,32,39,33,28,87,83,69,30.43,30.32,30.27,19,7,4,33,19,43,0.01,5,Rain-Snow,231
2013-1-4,48,44,39,45,41,37,93,86,66,30.42,30.30,30.15,19,7,6,23,17,29,0.08,6,Rain,256
2013-1-5,46,44,41,45,41,39,100,86,71,30.36,30.24,30.15,16,6,2,21,15,34,0.03,7,Rain,320
2013-1-6,44,42,39,41,39,37,100,88,78,30.35,30.20,30.09,12,6,4,17,9,,0.02,8,Rain,283
2013-1-7,44,40,37,41,37,36,100,93,81,30.35,30.27,30.15,9,5,3,14,7,,0.02,7,Rain,22
2013-1-8,41,38,35,39,37,34,100,95,87,30.34,30.21,30.12,6,4,0,13,6,,0.08,6,Fog-Rain,232
2013-1-9,41,40,39,39,38,34,100,92,81,30.22,30.06,29.86,12,6,4,17,10,,0.03,8,Rain,226
2013-1-10,37,35,33,36,33,30,93,87,74,29.90,29.77,29.68,19,7,6,18,14,,0.03,6,Rain-Snow,249
2013-1-11,29,26,23,32,23,18,100,81,61,30.05,29.84,29.68,19,5,1,17,10,,0.00,6,Rain-Snow,291
2013-1-12,28,24,19,23,18,14,93,81,55,30.13,30.01,29.95,19,7,6,14,9,,0.00,3,Snow,266
2013-1-13,26,22,17,23,20,17,93,84,69,30.12,30.02,30.01,12,6,6,13,6,,0.00,7,Snow,70
2013-1-14,27,25,23,25,23,19,100,91,81,30.08,29.92,29.86,7,3,1,10,8,,0.08,7,Rain-Snow,109
2013-1-15,25,21,17,23,21,16,100,92,80,29.96,29.77,29.71,5,3,1,9,5,,0.00,6,Snow,115
2013-1-16,26,24,23,25,24,23,100,93,86,29.80,29.70,29.68,4,2,0,11,4,,0.00,8,Fog-Rain-Snow,336
2013-1-17,26,24,23,23,22,20,93,89,79,29.93,29.78,29.71,6,4,2,16,11,,0.00,8,Snow,349
2013-1-18,23,21,19,22,18,16,93,88,75,29.94,29.79,29.65,7,5,1,16,10,,0.00,8,Snow,360
2013-1-19,20,18,17,18,16,14,93,85,68,29.73,29.55,29.50,6,5,0,9,5,,0.00,7,,50
2013-1-20,26,21,18,25,19,15,93,88,80,29.61,29.47,29.42,6,4,3,11,7,,0.02,8,Rain-Snow,61
2013-1-21,24,22,19,25,22,18,100,94,86,29.59,29.45,29.42,4,1,0,9,6,,0.08,7,Fog-Rain-Snow,351
2013-1-22,20,18,16,18,15,14,93,86,72,29.81,29.65,29.53,4,3,2,7,4,,0.00,8,Snow,24
2013-1-23,22,20,18,19,17,15,93,86,73,29.85,29.74,29.71,3,3,2,7,4,,0.00,8,Snow,45
2013-1-24,21,20,19,19,19,16,93,91,77,29.99,29.81,29.74,4,2,0,9,5,,0.00,8,Fog-Snow,343
2013-1-25,19,11,3,16,13,0,93,86,71,30.23,30.04,29.95,4,2,0,12,7,,0.00,7,Fog-Snow,326
2013-1-26,16,7,-2,14,5,-6,93,87,73,30.18,29.98,29.95,4,2,0,10,3,,0.00,6,Fog-Snow,174
2013-1-27,30,22,14,30,23,12,100,88,75,30.04,29.81,29.71,5,3,2,14,8,,0.01,7,Snow,177
2013-1-28,35,30,26,30,29,25,100,90,74,30.10,29.89,29.71,12,5,2,17,10,,0.00,5,Snow,228
2013-1-29,41,36,30,39,34,31,93,88,77,30.09,29.89,29.83,19,7,6,30,16,38,0.04,5,Rain,213
2013-1-30,53,46,40,48,43,36,94,86,71,29.90,29.77,29.65,19,6,4,34,23,40,0.16,5,Rain,236
2013-1-31,45,41,37,37,32,28,87,69,50,29.95,29.85,29.74,6,6,6,33,22,47,0.00,2,Rain,244